createdAt,value
2018-03-17T00:00:40.247Z,89.22
2018-03-17T00:01:45.481Z,89.16
2018-03-17T00:02:50.618Z,89.10
2018-03-17T00:03:55.852Z,88.91
2018-03-17T00:05:01.025Z,88.94
2018-03-17T00:06:06.509Z,88.88
2018-03-17T00:07:11.773Z,88.93
2018-03-17T00:08:16.959Z,88.87
2018-03-17T00:09:22.295Z,88.81
2018-03-17T00:10:27.404Z,88.64
2018-03-17T00:11:32.683Z,88.65
2018-03-17T00:12:38.207Z,88.61
2018-03-17T00:13:43.532Z,88.49
2018-03-17T00:14:48.776Z,88.46
2018-03-17T00:15:53.778Z,88.54
2018-03-17T00:16:58.883Z,88.56
2018-03-17T00:18:04.067Z,88.60
2018-03-17T00:19:09.204Z,88.69
2018-03-17T00:20:14.482Z,88.66
2018-03-17T00:21:19.581Z,88.61
2018-03-17T00:22:24.632Z,88.59
2018-03-17T00:23:29.833Z,88.53
2018-03-17T00:24:35.323Z,88.38
2018-03-17T00:25:40.404Z,88.41
2018-03-17T00:26:45.731Z,88.44
2018-03-17T00:27:50.833Z,88.45
2018-03-17T00:28:56.317Z,88.31
2018-03-17T00:30:01.718Z,88.31
2018-03-17T00:31:07.349Z,88.36
2018-03-17T00:32:12.630Z,88.35
2018-03-17T00:33:17.902Z,88.28
2018-03-17T00:34:23.298Z,88.36
2018-03-17T00:35:28.623Z,88.41
2018-03-17T00:36:34.048Z,88.51
2018-03-17T00:37:39.636Z,88.47
2018-03-17T00:38:45.058Z,88.51
2018-03-17T00:39:50.408Z,88.52
2018-03-17T00:40:55.678Z,88.50
2018-03-17T00:42:00.872Z,88.53
2018-03-17T00:43:06.280Z,88.59
2018-03-17T00:44:12.055Z,88.67
2018-03-17T00:45:17.587Z,88.58
2018-03-17T00:46:23.004Z,88.61
2018-03-17T00:47:28.532Z,88.65
2018-03-17T00:48:33.882Z,88.75
2018-03-17T00:49:39.227Z,88.79
2018-03-17T00:50:44.743Z,88.97
2018-03-17T00:51:50.175Z,89.19
2018-03-17T00:52:55.766Z,89.35
2018-03-17T00:54:01.074Z,89.46
2018-03-17T00:55:06.734Z,89.35
2018-03-17T00:56:12.064Z,89.36
2018-03-17T00:57:17.772Z,89.41
2018-03-17T00:58:23.212Z,89.48
2018-03-17T00:59:28.821Z,89.55
2018-03-17T01:00:34.154Z,89.53
2018-03-17T01:01:39.730Z,89.51
2018-03-17T01:02:45.289Z,89.46
2018-03-17T01:03:51.107Z,89.54
2018-03-17T01:04:56.462Z,89.58
2018-03-17T01:06:01.990Z,89.63
2018-03-17T01:07:07.430Z,89.68
2018-03-17T01:08:13.008Z,89.84
2018-03-17T01:09:18.511Z,89.84
2018-03-17T01:10:24.141Z,89.84
2018-03-17T01:11:29.512Z,89.83
2018-03-17T01:12:34.871Z,89.86
2018-03-17T01:13:40.252Z,89.88
2018-03-17T01:14:45.795Z,89.90
2018-03-17T01:15:51.237Z,89.89
2018-03-17T01:16:57.118Z,90.01
2018-03-17T01:18:02.577Z,90.30
2018-03-17T01:19:08.205Z,90.75
2018-03-17T01:20:13.797Z,90.87
2018-03-17T01:21:19.271Z,91.10
2018-03-17T01:22:24.678Z,91.15
2018-03-17T01:23:30.112Z,91.31
2018-03-17T01:24:35.329Z,91.42
2018-03-17T01:25:40.724Z,91.43
2018-03-17T01:26:46.265Z,91.52
2018-03-17T01:27:51.658Z,91.61
2018-03-17T01:28:57.028Z,91.62
2018-03-17T01:30:02.802Z,91.62
2018-03-17T01:31:08.480Z,91.62
2018-03-17T01:32:13.944Z,91.76
2018-03-17T01:33:19.308Z,91.70
2018-03-17T01:34:24.746Z,91.68
2018-03-17T01:35:30.190Z,91.66
2018-03-17T01:36:36.117Z,91.50
2018-03-17T01:37:41.754Z,91.23
2018-03-17T01:38:47.486Z,91.02
2018-03-17T01:39:52.972Z,90.87
2018-03-17T01:40:58.594Z,90.72
2018-03-17T01:42:04.446Z,90.62
2018-03-17T01:43:10.802Z,90.61
2018-03-17T01:44:16.454Z,90.60
2018-03-17T01:45:22.057Z,90.44
2018-03-17T01:46:27.495Z,90.35
2018-03-17T01:47:33.080Z,90.31
2018-03-17T01:48:38.484Z,90.41
2018-03-17T01:49:44.116Z,90.21
2018-03-17T01:50:49.650Z,90.10
2018-03-17T01:51:55.229Z,90.07
2018-03-17T01:53:00.918Z,90.06
2018-03-17T01:54:10.704Z,89.97
2018-03-17T01:55:16.511Z,89.85
2018-03-17T01:56:22.240Z,89.77
2018-03-17T01:57:28.073Z,89.82
2018-03-17T01:58:34.100Z,89.78
2018-03-17T01:59:40.038Z,89.73
2018-03-17T02:00:45.972Z,89.74
2018-03-17T02:01:51.756Z,89.76
2018-03-17T02:02:57.337Z,89.70
2018-03-17T02:04:03.218Z,89.70
2018-03-17T02:05:09.119Z,89.57
2018-03-17T02:06:14.970Z,89.50
2018-03-17T02:07:20.718Z,89.38
2018-03-17T02:08:26.369Z,89.42
2018-03-17T02:09:32.296Z,89.42
2018-03-17T02:10:38.040Z,89.36
2018-03-17T02:11:43.850Z,89.34
2018-03-17T02:12:49.783Z,89.29
2018-03-17T02:13:55.683Z,89.28
2018-03-17T02:15:01.480Z,89.25
2018-03-17T02:16:07.354Z,89.31
2018-03-17T02:17:12.976Z,89.09
2018-03-17T02:18:18.959Z,89.04
2018-03-17T02:19:24.524Z,88.96
2018-03-17T02:20:30.871Z,88.94
2018-03-17T02:21:36.606Z,88.89
2018-03-17T02:22:42.253Z,88.81
2018-03-17T02:23:47.969Z,88.68
2018-03-17T02:24:53.554Z,88.64
2018-03-17T02:25:59.406Z,88.52
2018-03-17T02:27:05.347Z,88.42
2018-03-17T02:28:10.896Z,88.37
2018-03-17T02:29:16.535Z,88.36
2018-03-17T02:30:22.117Z,88.40
2018-03-17T02:31:27.732Z,88.38
2018-03-17T02:32:33.436Z,88.38
2018-03-17T02:33:39.526Z,88.35
2018-03-17T02:34:44.950Z,88.42
2018-03-17T02:35:50.802Z,88.47
2018-03-17T02:36:56.403Z,88.40
2018-03-17T02:38:02.162Z,88.41
2018-03-17T02:39:08.053Z,88.40
2018-03-17T02:40:14.221Z,88.39
2018-03-17T02:41:19.993Z,88.40
2018-03-17T02:42:25.673Z,88.41
2018-03-17T02:43:31.336Z,88.24
2018-03-17T02:44:37.046Z,88.27
2018-03-17T02:45:43.125Z,88.36
2018-03-17T02:46:49.097Z,88.35
2018-03-17T02:47:54.812Z,88.29
2018-03-17T02:49:00.484Z,88.34
2018-03-17T02:50:06.229Z,88.32
2018-03-17T02:51:11.872Z,88.38
2018-03-17T02:52:17.236Z,88.31
2018-03-17T02:53:23.234Z,88.35
2018-03-17T02:54:28.937Z,88.69
2018-03-17T02:55:34.732Z,88.64
2018-03-17T02:56:39.912Z,88.67
2018-03-17T02:57:45.565Z,88.70
2018-03-17T02:58:51.429Z,88.91
2018-03-17T02:59:57.206Z,88.87
2018-03-17T03:01:02.712Z,88.89
2018-03-17T03:02:08.458Z,89.10
2018-03-17T03:03:14.016Z,89.27
2018-03-17T03:04:19.816Z,89.50
2018-03-17T03:05:25.362Z,89.75
2018-03-17T03:06:31.145Z,89.93
2018-03-17T03:07:36.766Z,90.14
2018-03-17T03:08:42.443Z,90.21
2018-03-17T03:09:48.502Z,90.23
2018-03-17T03:10:54.037Z,90.22
2018-03-17T03:11:59.384Z,90.25
2018-03-17T03:13:05.485Z,90.13
2018-03-17T03:14:10.937Z,90.09
2018-03-17T03:15:16.515Z,90.09
2018-03-17T03:16:21.921Z,90.06
2018-03-17T03:17:27.120Z,90.10
2018-03-17T03:18:32.320Z,90.02
2018-03-17T03:19:38.075Z,90.17
2018-03-17T03:20:43.483Z,90.29
2018-03-17T03:21:48.844Z,90.36
2018-03-17T03:22:54.395Z,90.16
2018-03-17T03:24:00.008Z,90.31
2018-03-17T03:25:05.802Z,90.40
2018-03-17T03:26:11.288Z,90.34
2018-03-17T03:27:16.736Z,90.31
2018-03-17T03:28:22.190Z,90.27
2018-03-17T03:29:27.708Z,90.21
2018-03-17T03:30:32.991Z,90.22
2018-03-17T03:31:38.570Z,90.42
2018-03-17T03:32:44.414Z,90.35
2018-03-17T03:33:50.185Z,90.26
2018-03-17T03:34:55.893Z,90.18
2018-03-17T03:36:01.380Z,90.18
2018-03-17T03:37:06.646Z,90.19
2018-03-17T03:38:11.850Z,90.10
2018-03-17T03:39:17.214Z,90.36
2018-03-17T03:40:22.885Z,90.57
2018-03-17T03:41:27.935Z,90.55
2018-03-17T03:42:33.449Z,90.45
2018-03-17T03:43:38.395Z,90.45
2018-03-17T03:44:44.150Z,90.34
2018-03-17T03:45:49.750Z,90.31
2018-03-17T03:46:55.366Z,90.13
2018-03-17T03:48:01.158Z,90.07
2018-03-17T03:49:06.302Z,90.08
2018-03-17T03:50:11.764Z,89.86
2018-03-17T03:51:18.025Z,89.78
2018-03-17T03:52:23.513Z,89.75
2018-03-17T03:53:28.821Z,89.59
2018-03-17T03:54:34.203Z,89.54
2018-03-17T03:55:39.787Z,89.45
2018-03-17T03:56:45.050Z,89.35
2018-03-17T03:57:50.711Z,89.35
2018-03-17T03:58:56.304Z,89.25
2018-03-17T04:00:01.385Z,89.20
2018-03-17T04:01:06.892Z,89.13
2018-03-17T04:02:12.260Z,89.13
2018-03-17T04:03:17.325Z,89.11
2018-03-17T04:04:22.753Z,89.32
2018-03-17T04:05:28.655Z,89.69
2018-03-17T04:06:33.741Z,89.52
2018-03-17T04:07:39.145Z,89.20
2018-03-17T04:08:43.958Z,89.07
2018-03-17T04:09:49.123Z,88.92
2018-03-17T04:10:54.028Z,88.85
2018-03-17T04:11:59.684Z,88.81
2018-03-17T04:13:05.181Z,88.61
2018-03-17T04:14:11.619Z,88.42
2018-03-17T04:15:16.643Z,88.33
2018-03-17T04:16:21.775Z,88.14
2018-03-17T04:17:27.129Z,87.97
2018-03-17T04:18:32.909Z,87.87
2018-03-17T04:19:38.603Z,87.83
2018-03-17T04:20:44.043Z,87.82
2018-03-17T04:21:49.319Z,87.86
2018-03-17T04:22:55.228Z,87.82
2018-03-17T04:24:00.408Z,87.72
2018-03-17T04:25:05.970Z,87.71
2018-03-17T04:26:11.206Z,87.73
2018-03-17T04:27:16.407Z,87.80
2018-03-17T04:28:21.520Z,87.82
2018-03-17T04:29:26.901Z,87.77
2018-03-17T04:30:31.888Z,87.67
2018-03-17T04:31:37.415Z,87.79
2018-03-17T04:32:42.797Z,87.59
2018-03-17T04:33:47.949Z,87.49
2018-03-17T04:34:53.064Z,87.41
2018-03-17T04:35:58.166Z,87.33
2018-03-17T04:37:03.057Z,87.38
2018-03-17T04:38:08.548Z,87.43
2018-03-17T04:39:13.838Z,87.52
2018-03-17T04:40:19.259Z,87.35
2018-03-17T04:41:24.435Z,87.24
2018-03-17T04:42:29.621Z,87.35
2018-03-17T04:43:34.905Z,87.39
2018-03-17T04:44:40.638Z,87.36
2018-03-17T04:45:45.801Z,87.26
2018-03-17T04:46:50.754Z,87.35
2018-03-17T04:47:56.109Z,87.41
2018-03-17T04:49:01.396Z,87.32
2018-03-17T04:50:06.476Z,87.27
2018-03-17T04:51:11.808Z,87.27
2018-03-17T04:52:17.084Z,87.34
2018-03-17T04:53:22.353Z,87.12
2018-03-17T04:54:27.723Z,87.09
2018-03-17T04:55:33.216Z,87.10
2018-03-17T04:56:38.364Z,87.02
2018-03-17T04:57:43.847Z,87.07
2018-03-17T04:58:48.928Z,87.15
2018-03-17T04:59:54.706Z,87.10
2018-03-17T05:00:59.974Z,87.07
2018-03-17T05:02:04.993Z,87.02
2018-03-17T05:03:10.346Z,87.07
2018-03-17T05:04:15.749Z,87.11
2018-03-17T05:05:21.270Z,87.16
2018-03-17T05:06:26.683Z,87.02
2018-03-17T05:07:32.182Z,87.08
2018-03-17T05:08:37.591Z,86.77
2018-03-17T05:09:42.906Z,86.61
2018-03-17T05:10:48.399Z,86.63
2018-03-17T05:11:53.675Z,86.51
2018-03-17T05:12:59.136Z,86.53
2018-03-17T05:14:04.165Z,86.55
2018-03-17T05:15:09.313Z,86.56
2018-03-17T05:16:14.288Z,86.57
2018-03-17T05:17:19.696Z,86.44
2018-03-17T05:18:24.815Z,86.33
2018-03-17T05:19:30.150Z,86.31
2018-03-17T05:20:35.155Z,86.41
2018-03-17T05:21:40.474Z,86.62
2018-03-17T05:22:45.655Z,86.67
2018-03-17T05:23:51.424Z,86.57
2018-03-17T05:24:56.644Z,86.39
2018-03-17T05:26:01.784Z,86.31
2018-03-17T05:27:06.897Z,86.41
2018-03-17T05:28:12.027Z,86.34
2018-03-17T05:29:17.199Z,86.23
2018-03-17T05:30:22.453Z,86.20
2018-03-17T05:31:27.304Z,86.08
2018-03-17T05:32:32.154Z,86.04
2018-03-17T05:33:37.151Z,85.94
2018-03-17T05:34:42.430Z,86.00
2018-03-17T05:35:47.829Z,85.98
2018-03-17T05:36:53.483Z,85.95
2018-03-17T05:37:58.774Z,85.87
2018-03-17T05:39:03.745Z,85.88
2018-03-17T05:40:09.105Z,85.90
2018-03-17T05:41:14.313Z,85.89
2018-03-17T05:42:19.323Z,85.89
2018-03-17T05:43:24.811Z,85.78
2018-03-17T05:44:30.139Z,85.74
2018-03-17T05:45:35.275Z,85.70
2018-03-17T05:46:40.358Z,85.59
2018-03-17T05:47:45.595Z,85.51
2018-03-17T05:48:50.817Z,85.65
2018-03-17T05:49:56.517Z,85.58
2018-03-17T05:51:01.648Z,85.57
2018-03-17T05:52:07.091Z,85.64
2018-03-17T05:53:12.567Z,85.50
2018-03-17T05:54:17.932Z,85.56
2018-03-17T05:55:23.233Z,85.45
2018-03-17T05:56:28.839Z,85.43
2018-03-17T05:57:34.233Z,85.47
2018-03-17T05:58:39.693Z,85.44
2018-03-17T05:59:45.083Z,85.40
2018-03-17T06:00:50.559Z,85.45
2018-03-17T06:01:56.087Z,85.48
2018-03-17T06:03:02.002Z,85.45
2018-03-17T06:04:07.630Z,85.44
2018-03-17T06:05:13.237Z,85.44
2018-03-17T06:06:18.978Z,85.50
2018-03-17T06:07:24.974Z,85.48
2018-03-17T06:08:30.803Z,85.40
2018-03-17T06:09:36.313Z,85.32
2018-03-17T06:10:41.768Z,85.08
2018-03-17T06:11:47.696Z,85.08
2018-03-17T06:12:52.949Z,85.16
2018-03-17T06:13:58.348Z,85.18
2018-03-17T06:16:14.295Z,84.86
2018-03-17T06:18:38.840Z,84.80
2018-03-17T06:19:44.416Z,84.69
2018-03-17T06:20:50.044Z,84.71
2018-03-17T06:21:56.041Z,84.80
2018-03-17T06:23:01.393Z,84.62
2018-03-17T06:24:06.909Z,84.64
2018-03-17T06:25:12.530Z,84.73
2018-03-17T06:26:18.324Z,84.54
2018-03-17T06:27:24.088Z,84.47
2018-03-17T06:28:30.254Z,84.51
2018-03-17T06:29:35.781Z,84.63
2018-03-17T06:30:41.654Z,84.55
2018-03-17T06:31:47.277Z,84.54
2018-03-17T06:32:53.214Z,84.56
2018-03-17T06:33:58.772Z,84.48
2018-03-17T06:35:04.564Z,84.59
2018-03-17T06:36:10.161Z,84.66
2018-03-17T06:37:15.914Z,84.48
2018-03-17T06:38:21.470Z,84.32
2018-03-17T06:39:27.346Z,84.37
2018-03-17T06:40:33.023Z,84.52
2018-03-17T06:41:39.056Z,84.67
2018-03-17T06:42:44.900Z,84.69
2018-03-17T06:43:50.367Z,84.68
2018-03-17T06:44:56.183Z,84.84
2018-03-17T06:46:01.803Z,84.66
2018-03-17T06:47:07.590Z,84.61
2018-03-17T06:48:13.187Z,84.64
2018-03-17T06:49:18.941Z,84.63
2018-03-17T06:50:24.360Z,84.70
2018-03-17T06:51:30.049Z,84.66
2018-03-17T06:52:35.409Z,84.53
2018-03-17T06:53:41.347Z,84.40
2018-03-17T06:54:46.828Z,84.48
2018-03-17T06:55:52.305Z,84.52
2018-03-17T06:56:57.991Z,84.64
2018-03-17T06:58:03.620Z,84.60
2018-03-17T06:59:09.262Z,84.56
2018-03-17T07:00:14.984Z,84.54
2018-03-17T07:01:20.661Z,84.47
2018-03-17T07:02:26.220Z,84.41
2018-03-17T07:03:31.805Z,84.33
2018-03-17T07:04:37.526Z,84.22
2018-03-17T07:05:43.123Z,84.07
2018-03-17T07:06:48.978Z,84.17
2018-03-17T07:07:54.619Z,84.00
2018-03-17T07:09:00.049Z,83.90
2018-03-17T07:10:05.639Z,83.93
2018-03-17T07:11:11.214Z,83.86
2018-03-17T07:12:16.755Z,83.83
2018-03-17T07:13:22.453Z,83.69
2018-03-17T07:14:28.018Z,83.82
2018-03-17T07:15:33.667Z,83.85
2018-03-17T07:16:39.183Z,83.81
2018-03-17T07:17:44.704Z,83.81
2018-03-17T07:18:50.230Z,83.74
2018-03-17T07:19:56.399Z,83.79
2018-03-17T07:21:01.808Z,83.64
2018-03-17T07:22:07.476Z,83.71
2018-03-17T07:23:12.821Z,83.65
2018-03-17T07:24:18.267Z,83.56
2018-03-17T07:25:23.732Z,83.54
2018-03-17T07:26:29.215Z,83.38
2018-03-17T07:27:35.036Z,83.29
2018-03-17T07:28:40.524Z,83.31
2018-03-17T07:29:45.947Z,83.47
2018-03-17T07:30:53.667Z,83.25
2018-03-17T07:31:59.677Z,83.10
2018-03-17T07:33:05.071Z,83.08
2018-03-17T07:34:11.588Z,83.16
2018-03-17T07:35:17.035Z,83.10
2018-03-17T07:36:23.772Z,83.19
2018-03-17T07:37:29.179Z,83.43
2018-03-17T07:38:35.588Z,83.43
2018-03-17T07:39:41.897Z,83.09
2018-03-17T07:40:48.646Z,83.07
2018-03-17T07:41:55.308Z,83.27
2018-03-17T07:43:00.582Z,83.15
2018-03-17T07:44:06.150Z,83.20
2018-03-17T07:45:12.122Z,83.22
2018-03-17T07:46:17.716Z,83.29
2018-03-17T07:47:23.192Z,83.22
2018-03-17T07:48:28.479Z,83.10
2018-03-17T07:49:33.857Z,83.09
2018-03-17T07:50:39.339Z,83.08
2018-03-17T07:51:45.410Z,82.90
2018-03-17T07:52:50.747Z,83.05
2018-03-17T07:53:56.171Z,83.06
2018-03-17T07:55:01.669Z,83.00
2018-03-17T07:56:07.468Z,82.92
2018-03-17T07:57:12.778Z,82.81
2018-03-17T07:58:18.511Z,82.81
2018-03-17T07:59:23.824Z,82.78
2018-03-17T08:00:29.024Z,82.70
2018-03-17T08:01:34.298Z,82.61
2018-03-17T08:02:39.586Z,82.50
2018-03-17T08:03:45.019Z,82.44
2018-03-17T08:04:50.544Z,82.32
2018-03-17T08:05:55.980Z,82.28
2018-03-17T08:07:01.350Z,82.26
2018-03-17T08:08:06.820Z,82.32
2018-03-17T08:09:12.187Z,82.22
2018-03-17T08:10:17.467Z,82.15
2018-03-17T08:11:23.023Z,82.02
2018-03-17T08:12:28.404Z,81.96
2018-03-17T08:13:33.778Z,81.85
2018-03-17T08:14:39.202Z,82.11
2018-03-17T08:15:44.413Z,81.86
2018-03-17T08:16:49.829Z,81.69
2018-03-17T08:17:55.410Z,81.76
2018-03-17T08:19:00.701Z,81.72
2018-03-17T08:20:05.934Z,81.57
2018-03-17T08:21:11.177Z,81.66
2018-03-17T08:22:16.431Z,81.70
2018-03-17T08:23:21.743Z,81.64
2018-03-17T08:24:27.358Z,81.64
2018-03-17T08:25:32.673Z,81.48
2018-03-17T08:26:38.012Z,81.47
2018-03-17T08:27:43.321Z,81.42
2018-03-17T08:28:48.503Z,81.50
2018-03-17T08:29:53.876Z,81.29
2018-03-17T08:30:59.128Z,81.25
2018-03-17T08:32:04.372Z,81.23
2018-03-17T08:33:09.495Z,81.22
2018-03-17T08:34:14.713Z,81.14
2018-03-17T08:35:19.912Z,81.09
2018-03-17T08:36:25.273Z,80.96
2018-03-17T08:37:30.698Z,80.91
2018-03-17T08:38:36.074Z,80.85
2018-03-17T08:39:41.462Z,80.87
2018-03-17T08:40:46.702Z,80.81
2018-03-17T08:41:52.365Z,80.75
2018-03-17T08:42:57.660Z,80.78
2018-03-17T08:44:02.768Z,80.54
2018-03-17T08:45:07.949Z,80.53
2018-03-17T08:46:13.212Z,80.47
2018-03-17T08:47:18.421Z,80.31
2018-03-17T08:48:24.016Z,80.41
2018-03-17T08:49:29.305Z,80.58
2018-03-17T08:50:34.547Z,80.37
2018-03-17T08:51:39.725Z,80.22
2018-03-17T08:52:45.667Z,80.09
2018-03-17T08:53:50.879Z,80.15
2018-03-17T08:54:56.494Z,80.15
2018-03-17T08:56:01.698Z,80.09
2018-03-17T08:57:06.885Z,80.05
2018-03-17T08:58:12.072Z,79.96
2018-03-17T08:59:17.247Z,79.86
2018-03-17T09:00:22.575Z,79.85
2018-03-17T09:01:27.880Z,79.65
2018-03-17T09:02:33.166Z,79.66
2018-03-17T09:03:38.413Z,79.62
2018-03-17T09:04:43.642Z,79.72
2018-03-17T09:05:48.938Z,79.81
2018-03-17T09:06:54.136Z,79.52
2018-03-17T09:07:59.387Z,79.39
2018-03-17T09:09:04.712Z,79.35
2018-03-17T09:10:09.866Z,79.39
2018-03-17T09:11:15.130Z,79.34
2018-03-17T09:12:20.227Z,79.40
2018-03-17T09:13:25.380Z,79.22
2018-03-17T09:14:30.704Z,79.24
2018-03-17T09:15:36.078Z,79.15
2018-03-17T09:16:41.877Z,79.20
2018-03-17T09:17:47.372Z,79.14
2018-03-17T09:18:52.450Z,79.04
2018-03-17T09:19:57.513Z,79.14
2018-03-17T09:21:02.661Z,79.06
2018-03-17T09:22:07.934Z,79.00
2018-03-17T09:23:13.039Z,78.89
2018-03-17T09:24:18.449Z,78.88
2018-03-17T09:25:23.585Z,78.84
2018-03-17T09:26:28.906Z,78.91
2018-03-17T09:27:33.982Z,78.89
2018-03-17T09:28:39.119Z,78.72
2018-03-17T09:29:44.600Z,78.62
2018-03-17T09:30:50.089Z,78.65
2018-03-17T09:31:55.098Z,78.65
2018-03-17T09:33:00.205Z,78.46
2018-03-17T09:34:05.405Z,78.39
2018-03-17T09:35:10.477Z,78.30
2018-03-17T09:36:15.818Z,78.27
2018-03-17T09:37:21.018Z,78.10
2018-03-17T09:38:26.148Z,78.29
2018-03-17T09:39:31.762Z,78.10
2018-03-17T09:40:36.899Z,78.07
2018-03-17T09:41:41.954Z,78.08
2018-03-17T09:42:47.404Z,78.00
2018-03-17T09:43:52.720Z,77.97
2018-03-17T09:44:57.979Z,77.95
2018-03-17T09:46:03.146Z,77.77
2018-03-17T09:47:08.364Z,77.65
2018-03-17T09:48:13.439Z,77.65
2018-03-17T09:49:19.012Z,77.74
2018-03-17T09:50:23.982Z,77.85
2018-03-17T09:51:29.152Z,77.80
2018-03-17T09:52:34.332Z,77.63
2018-03-17T09:53:39.400Z,77.67
2018-03-17T09:54:44.551Z,77.68
2018-03-17T09:55:50.220Z,77.62
2018-03-17T09:56:55.257Z,77.65
2018-03-17T09:58:00.251Z,77.58
2018-03-17T09:59:05.424Z,77.43
2018-03-17T10:00:10.428Z,77.31
2018-03-17T10:01:15.539Z,77.30
2018-03-17T10:02:20.837Z,77.18
2018-03-17T10:03:25.909Z,77.21
2018-03-17T10:04:32.631Z,77.29
2018-03-17T10:05:38.054Z,77.21
2018-03-17T10:06:43.169Z,77.19
2018-03-17T10:07:48.815Z,77.22
2018-03-17T10:08:54.063Z,77.25
2018-03-17T10:09:59.161Z,77.21
2018-03-17T10:11:04.744Z,77.32
2018-03-17T10:12:09.836Z,77.29
2018-03-17T10:13:15.558Z,77.22
2018-03-17T10:14:20.668Z,77.22
2018-03-17T10:15:25.668Z,77.00
2018-03-17T10:16:30.768Z,77.21
2018-03-17T10:17:36.541Z,77.11
2018-03-17T10:18:41.620Z,77.01
2018-03-17T10:19:47.149Z,76.91
2018-03-17T10:20:52.304Z,77.10
2018-03-17T10:21:57.362Z,77.12
2018-03-17T10:23:02.412Z,77.04
2018-03-17T10:24:07.578Z,76.97
2018-03-17T10:25:12.581Z,76.95
2018-03-17T10:26:17.953Z,76.92
2018-03-17T10:27:22.941Z,76.97
2018-03-17T10:28:27.888Z,77.17
2018-03-17T10:29:32.904Z,77.17
2018-03-17T10:30:38.065Z,76.88
2018-03-17T10:31:43.632Z,76.81
2018-03-17T10:32:49.209Z,76.69
2018-03-17T10:33:54.258Z,76.70
2018-03-17T10:34:59.244Z,76.77
2018-03-17T10:36:04.341Z,76.73
2018-03-17T10:37:09.331Z,76.70
2018-03-17T10:38:14.258Z,76.60
2018-03-17T10:39:19.662Z,76.72
2018-03-17T10:40:24.595Z,76.60
2018-03-17T10:41:29.522Z,76.77
2018-03-17T10:42:35.836Z,76.60
2018-03-17T10:43:40.834Z,76.71
2018-03-17T10:44:45.700Z,76.59
2018-03-17T10:45:50.941Z,76.49
2018-03-17T10:46:56.334Z,76.50
2018-03-17T10:48:01.502Z,76.47
2018-03-17T10:49:06.595Z,76.51
2018-03-17T10:51:24.201Z,76.58
2018-03-17T10:52:29.573Z,76.64
2018-03-17T10:53:34.716Z,76.65
2018-03-17T10:54:40.131Z,76.71
2018-03-17T10:55:45.191Z,76.60
2018-03-17T10:56:49.960Z,76.41
2018-03-17T10:57:55.510Z,76.29
2018-03-17T10:59:00.647Z,76.40
2018-03-17T11:00:05.761Z,76.40
2018-03-17T11:01:14.717Z,76.43
2018-03-17T11:02:22.317Z,76.52
2018-03-17T11:03:27.673Z,76.49
2018-03-17T11:04:33.244Z,76.37
2018-03-17T11:05:38.538Z,76.31
2018-03-17T11:06:43.558Z,76.31
2018-03-17T11:07:48.911Z,76.45
2018-03-17T11:08:53.948Z,76.38
2018-03-17T11:09:59.033Z,76.25
2018-03-17T11:11:04.607Z,76.27
2018-03-17T11:12:09.820Z,76.37
2018-03-17T11:13:14.902Z,76.31
2018-03-17T11:14:19.997Z,76.31
2018-03-17T11:15:25.037Z,76.26
2018-03-17T11:16:30.200Z,76.33
2018-03-17T11:17:35.688Z,76.35
2018-03-17T11:18:40.786Z,76.10
2018-03-17T11:19:46.291Z,76.13
2018-03-17T11:20:51.353Z,76.19
2018-03-17T11:21:56.572Z,76.26
2018-03-17T11:23:01.661Z,76.24
2018-03-17T11:24:07.158Z,76.06
2018-03-17T11:25:12.315Z,76.05
2018-03-17T11:26:17.440Z,76.13
2018-03-17T11:27:22.495Z,76.12
2018-03-17T11:28:27.651Z,76.06
2018-03-17T11:29:32.728Z,76.12
2018-03-17T11:30:38.370Z,75.89
2018-03-17T11:31:43.478Z,75.75
2018-03-17T11:32:48.618Z,75.90
2018-03-17T11:33:53.947Z,76.00
2018-03-17T11:34:59.386Z,75.87
2018-03-17T11:36:04.637Z,75.91
2018-03-17T11:37:10.277Z,75.78
2018-03-17T11:38:15.403Z,75.71
2018-03-17T11:39:20.663Z,75.77
2018-03-17T11:40:25.922Z,75.60
2018-03-17T11:41:31.115Z,75.58
2018-03-17T11:42:36.329Z,75.57
2018-03-17T11:43:41.596Z,75.67
2018-03-17T11:44:46.784Z,75.47
2018-03-17T11:45:51.813Z,75.55
2018-03-17T11:46:56.896Z,75.42
2018-03-17T11:48:02.182Z,75.38
2018-03-17T11:49:07.558Z,75.52
2018-03-17T11:50:13.375Z,75.57
2018-03-17T11:51:18.473Z,75.48
2018-03-17T11:52:23.796Z,75.48
2018-03-17T11:53:28.809Z,75.42
2018-03-17T11:54:33.912Z,75.38
2018-03-17T11:55:39.378Z,75.25
2018-03-17T11:56:44.570Z,75.20
2018-03-17T11:57:50.058Z,75.28
2018-03-17T11:58:55.179Z,75.29
2018-03-17T12:00:00.333Z,75.41
2018-03-17T12:01:05.520Z,75.53
2018-03-17T12:02:11.182Z,75.81
2018-03-17T12:03:16.262Z,75.89
2018-03-17T12:04:21.388Z,76.02
2018-03-17T12:05:26.426Z,76.19
2018-03-17T12:06:31.612Z,76.20
2018-03-17T12:07:36.772Z,76.29
2018-03-17T12:08:42.577Z,76.22
2018-03-17T12:09:47.699Z,76.22
2018-03-17T12:10:52.960Z,76.01
2018-03-17T12:11:58.445Z,76.23
2018-03-17T12:13:03.617Z,76.25
2018-03-17T12:14:08.952Z,76.03
2018-03-17T12:15:14.737Z,75.77
2018-03-17T12:16:20.156Z,75.47
2018-03-17T12:17:25.333Z,75.64
2018-03-17T12:18:30.626Z,75.61
2018-03-17T12:19:35.675Z,75.51
2018-03-17T12:20:40.778Z,75.53
2018-03-17T12:21:46.529Z,75.38
2018-03-17T12:22:51.662Z,75.49
2018-03-17T12:23:56.888Z,75.44
2018-03-17T12:25:02.223Z,75.48
2018-03-17T12:26:07.612Z,75.34
2018-03-17T12:27:13.537Z,75.41
2018-03-17T12:28:18.521Z,75.29
2018-03-17T12:29:23.589Z,75.27
2018-03-17T12:30:28.873Z,75.41
2018-03-17T12:31:33.871Z,75.38
2018-03-17T12:32:38.938Z,75.34
2018-03-17T12:33:44.359Z,75.47
2018-03-17T12:34:49.422Z,75.32
2018-03-17T12:35:54.852Z,75.27
2018-03-17T12:36:59.854Z,75.22
2018-03-17T12:38:04.968Z,75.12
2018-03-17T12:39:10.083Z,75.23
2018-03-17T12:40:15.553Z,75.19
2018-03-17T12:41:20.803Z,75.11
2018-03-17T12:42:26.159Z,75.07
2018-03-17T12:43:31.320Z,75.18
2018-03-17T12:44:36.434Z,75.13
2018-03-17T12:45:41.496Z,75.11
2018-03-17T12:46:46.955Z,74.92
2018-03-17T12:47:52.086Z,74.85
2018-03-17T12:48:57.318Z,74.88
2018-03-17T12:50:02.503Z,74.99
2018-03-17T12:51:07.780Z,75.01
2018-03-17T12:52:12.835Z,74.95
2018-03-17T12:53:18.944Z,74.94
2018-03-17T12:54:24.007Z,75.10
2018-03-17T12:55:29.220Z,75.00
2018-03-17T12:56:34.435Z,74.82
2018-03-17T12:57:39.670Z,74.81
2018-03-17T12:58:44.799Z,74.91
2018-03-17T12:59:50.236Z,74.93
2018-03-17T13:00:55.292Z,75.01
2018-03-17T13:02:00.291Z,75.04
2018-03-17T13:03:05.503Z,75.08
2018-03-17T13:04:10.829Z,74.98
2018-03-17T13:05:16.010Z,74.93
2018-03-17T13:06:21.433Z,75.03
2018-03-17T13:07:26.497Z,74.97
2018-03-17T13:08:31.653Z,74.97
2018-03-17T13:09:36.751Z,74.88
2018-03-17T13:10:41.977Z,74.82
2018-03-17T13:11:47.174Z,74.89
2018-03-17T13:12:52.625Z,74.85
2018-03-17T13:13:58.733Z,74.80
2018-03-17T13:15:03.843Z,74.75
2018-03-17T13:16:08.926Z,74.67
2018-03-17T13:17:14.705Z,74.74
2018-03-17T13:18:20.359Z,74.71
2018-03-17T13:19:30.081Z,74.71
2018-03-17T13:20:35.185Z,74.63
2018-03-17T13:21:40.172Z,74.62
2018-03-17T13:22:49.490Z,74.52
2018-03-17T13:23:54.765Z,74.63
2018-03-17T13:24:59.886Z,74.78
2018-03-17T13:26:05.287Z,74.71
2018-03-17T13:29:18.518Z,74.58
2018-03-17T13:30:23.609Z,74.77
2018-03-17T13:31:28.783Z,74.66
2018-03-17T13:32:38.391Z,74.80
2018-03-17T13:33:43.525Z,74.83
2018-03-17T13:34:48.753Z,74.80
2018-03-17T13:38:01.385Z,74.74
2018-03-17T13:39:06.703Z,74.87
2018-03-17T13:40:16.060Z,74.92
2018-03-17T13:41:21.237Z,74.91
2018-03-17T13:42:26.241Z,74.90
2018-03-17T13:43:31.273Z,74.84
2018-03-17T13:44:36.780Z,74.84
2018-03-17T13:45:41.860Z,74.86
2018-03-17T13:46:46.999Z,74.80
2018-03-17T13:47:52.010Z,74.67
2018-03-17T13:48:57.093Z,74.69
2018-03-17T13:50:02.153Z,74.79
2018-03-17T13:51:07.722Z,74.86
2018-03-17T13:52:12.884Z,74.74
2018-03-17T13:53:18.053Z,74.75
2018-03-17T13:54:23.127Z,74.62
2018-03-17T13:55:28.353Z,74.56
2018-03-17T13:56:33.457Z,74.52
2018-03-17T13:57:38.783Z,74.59
2018-03-17T13:58:43.634Z,74.64
2018-03-17T13:59:48.594Z,74.58
2018-03-17T14:00:53.516Z,74.51
2018-03-17T14:01:58.484Z,74.57
2018-03-17T14:03:03.656Z,74.56
2018-03-17T14:04:09.136Z,74.31
2018-03-17T14:05:14.194Z,74.41
2018-03-17T14:06:19.306Z,74.58
2018-03-17T14:07:24.249Z,74.43
2018-03-17T14:08:29.796Z,74.51
2018-03-17T14:09:34.781Z,74.56
2018-03-17T14:10:40.415Z,74.57